Time;durP1;ratioP1;P1;durP2;ratioP2;P2;SDS_P1;SDS_P2;PMS_P1;PMS_P2;Temp;Humidity;BMP_temperature;BMP_pressure;BME280_temperature;BME280_humidity;BME280_pressure;Samples;Min_cycle;Max_cycle;Signal;HPM_P1;HPM_P2
2024/01/19 00:00:15;;;;;;;5.40;4.50;;;;;;;0.66;100.00;96102.47;5080957;28;20226;-56
2024/01/19 00:02:41;;;;;;;6.70;4.80;;;;;;;0.63;100.00;96100.91;5080627;28;20230;-54
2024/01/19 00:05:08;;;;;;;7.33;5.03;;;;;;;0.70;100.00;96104.78;5080685;28;20297;-53
2024/01/19 00:07:36;;;;;;;5.23;4.73;;;;;;;0.59;100.00;96108.97;5100621;28;20256;-54
2024/01/19 00:10:05;;;;;;;6.17;4.63;;;;;;;0.55;100.00;96110.94;5101633;28;20292;-55
2024/01/19 00:12:35;;;;;;;6.10;4.87;;;;;;;0.42;100.00;96112.63;5100748;28;20216;-54
2024/01/19 00:15:04;;;;;;;7.30;4.97;;;;;;;0.46;100.00;96121.94;5100552;28;20255;-53
2024/01/19 00:17:30;;;;;;;5.63;4.70;;;;;;;0.54;100.00;96126.63;5100826;28;20237;-54
2024/01/19 00:19:57;;;;;;;7.23;5.43;;;;;;;0.64;100.00;96135.56;5100964;28;20228;-55
2024/01/19 00:22:23;;;;;;;6.73;5.80;;;;;;;0.71;100.00;96140.25;5101278;27;20306;-55
2024/01/19 00:24:50;;;;;;;6.33;5.73;;;;;;;0.71;100.00;96139.44;5100589;28;20212;-55
2024/01/19 00:27:18;;;;;;;7.13;5.33;;;;;;;0.63;100.00;96144.28;5101010;28;20193;-56
2024/01/19 00:29:45;;;;;;;5.37;4.63;;;;;;;0.69;100.00;96152.53;5100861;28;20311;-54
2024/01/19 00:32:12;;;;;;;5.63;4.70;;;;;;;0.71;100.00;96152.47;5101258;27;20201;-55
2024/01/19 00:34:38;;;;;;;7.47;5.10;;;;;;;0.74;100.00;96158.31;5100245;28;20197;-55
2024/01/19 00:37:07;;;;;;;9.00;5.67;;;;;;;0.80;100.00;96157.91;5100594;28;20213;-54
2024/01/19 00:39:34;;;;;;;8.10;5.33;;;;;;;0.75;100.00;96159.97;5100602;28;20753;-55
2024/01/19 00:42:00;;;;;;;7.83;5.07;;;;;;;0.74;100.00;96168.72;5100894;28;20204;-55
2024/01/19 00:44:28;;;;;;;6.97;5.37;;;;;;;0.69;100.00;96170.75;5101005;28;20205;-55
2024/01/19 00:46:55;;;;;;;6.03;5.10;;;;;;;0.80;100.00;96178.75;5099840;28;20533;-56
2024/01/19 00:49:22;;;;;;;6.20;5.10;;;;;;;0.75;100.00;96177.34;5100529;28;20363;-55
2024/01/19 00:51:48;;;;;;;5.57;5.00;;;;;;;0.83;100.00;96182.91;5082163;28;20269;-55
2024/01/19 00:54:15;;;;;;;5.93;5.37;;;;;;;0.86;100.00;96188.75;5101295;28;20296;-53
2024/01/19 00:56:42;;;;;;;5.20;4.67;;;;;;;0.79;100.00;96192.69;5100005;28;20295;-55
2024/01/19 00:59:08;;;;;;;5.93;4.93;;;;;;;0.80;100.00;96202.16;5099953;28;20224;-55
2024/01/19 01:01:36;;;;;;;11.20;5.47;;;;;;;0.74;100.00;96205.16;5100253;28;20208;-54
2024/01/19 01:04:03;;;;;;;6.87;5.30;;;;;;;0.78;100.00;96208.41;5101962;28;20210;-54
2024/01/19 01:06:30;;;;;;;6.87;5.10;;;;;;;0.77;100.00;96210.16;5104868;28;20330;-55
2024/01/19 01:08:56;;;;;;;4.90;4.50;;;;;;;0.74;100.00;96214.72;5105076;27;20197;-54
2024/01/19 01:11:23;;;;;;;6.30;4.83;;;;;;;0.72;100.00;96233.00;5104646;28;20210;-54
2024/01/19 01:13:50;;;;;;;6.10;4.63;;;;;;;0.71;100.00;96226.13;5104974;28;20225;-55
2024/01/19 01:16:16;;;;;;;5.30;4.80;;;;;;;0.74;100.00;96230.34;5104486;28;20207;-55
2024/01/19 01:18:44;;;;;;;5.97;5.23;;;;;;;0.76;100.00;96234.50;5103868;28;20206;-54
2024/01/19 01:21:11;;;;;;;7.47;5.27;;;;;;;0.80;100.00;96236.00;5104235;28;20201;-53
2024/01/19 01:23:39;;;;;;;6.27;5.00;;;;;;;0.73;100.00;96241.66;5104402;27;20233;-53
2024/01/19 01:26:06;;;;;;;7.90;5.67;;;;;;;0.73;100.00;96245.09;5103457;28;20706;-54
2024/01/19 01:28:32;;;;;;;6.37;5.40;;;;;;;0.79;100.00;96255.13;5104331;28;20304;-55
2024/01/19 01:30:59;;;;;;;5.80;5.20;;;;;;;0.82;100.00;96256.72;5103985;28;20204;-55
2024/01/19 01:33:26;;;;;;;6.20;5.63;;;;;;;0.81;100.00;96266.31;5105632;28;20292;-54
2024/01/19 01:35:54;;;;;;;6.10;5.60;;;;;;;0.79;100.00;96269.91;5108861;28;20583;-55
2024/01/19 01:38:20;;;;;;;6.40;5.80;;;;;;;0.75;100.00;96269.25;5109199;28;20209;-55
2024/01/19 01:40:47;;;;;;;7.10;5.83;;;;;;;0.72;100.00;96272.06;5104467;28;20241;-55
2024/01/19 01:43:20;;;;;;;6.20;5.60;;;;;;;0.87;100.00;96278.09;5104174;28;20207;-55
2024/01/19 01:45:47;;;;;;;6.37;5.73;;;;;;;0.75;100.00;96271.00;5103989;28;20194;-55
2024/01/19 01:48:14;;;;;;;7.43;6.63;;;;;;;0.66;100.00;96280.22;5104470;27;20224;-54
2024/01/19 01:50:40;;;;;;;7.17;6.00;;;;;;;0.67;100.00;96281.06;5104244;28;20275;-54
2024/01/19 01:53:08;;;;;;;6.00;5.40;;;;;;;0.65;100.00;96281.16;5104148;28;20287;-54
2024/01/19 01:55:35;;;;;;;7.87;5.97;;;;;;;0.66;100.00;96293.25;5103706;28;20215;-53
2024/01/19 01:58:02;;;;;;;6.03;5.17;;;;;;;0.72;100.00;96290.25;5104065;28;20641;-55
2024/01/19 02:00:30;;;;;;;7.73;5.27;;;;;;;0.66;100.00;96290.63;5102401;28;20267;-54
2024/01/19 02:02:59;;;;;;;8.60;5.90;;;;;;;0.69;100.00;96295.66;5103857;28;20284;-55
2024/01/19 02:05:26;;;;;;;9.70;6.10;;;;;;;0.67;100.00;96296.69;5103558;28;20198;-54
2024/01/19 02:07:53;;;;;;;6.80;5.80;;;;;;;0.64;100.00;96302.88;5104406;28;20196;-56
2024/01/19 02:10:20;;;;;;;7.03;5.83;;;;;;;0.69;100.00;96303.47;5103244;28;20280;-54
2024/01/19 02:12:47;;;;;;;8.30;6.30;;;;;;;0.65;100.00;96309.78;5104410;28;20202;-54
2024/01/19 02:15:19;;;;;;;6.63;5.90;;;;;;;0.71;100.00;96311.19;5103721;28;20205;-56
2024/01/19 02:17:45;;;;;;;6.57;5.23;;;;;;;0.62;100.00;96309.13;5105288;28;20193;-56
2024/01/19 02:20:12;;;;;;;6.20;5.43;;;;;;;0.64;100.00;96315.09;5104581;28;20231;-54
2024/01/19 02:22:39;;;;;;;6.30;5.33;;;;;;;0.55;100.00;96313.84;5106061;28;20205;-56
2024/01/19 02:25:08;;;;;;;5.93;5.43;;;;;;;0.58;100.00;96308.47;5105074;28;20292;-54
2024/01/19 02:27:34;;;;;;;8.00;5.77;;;;;;;0.52;100.00;96319.25;5102759;28;20445;-55
2024/01/19 02:30:01;;;;;;;6.77;6.00;;;;;;;0.60;100.00;96321.41;5102913;28;20223;-56
2024/01/19 02:32:28;;;;;;;6.10;5.60;;;;;;;0.64;100.00;96323.69;5102976;28;20217;-54
2024/01/19 02:34:55;;;;;;;6.00;5.30;;;;;;;0.50;100.00;96321.06;5103321;28;20295;-55
2024/01/19 02:37:23;;;;;;;6.07;5.13;;;;;;;0.56;100.00;96325.94;5103226;28;20288;-53
2024/01/19 02:39:52;;;;;;;5.90;5.40;;;;;;;0.56;100.00;96333.75;5103363;27;20225;-54
2024/01/19 02:42:20;;;;;;;5.97;5.03;;;;;;;0.52;100.00;96334.84;5102949;28;20292;-55
2024/01/19 02:44:47;;;;;;;5.93;5.33;;;;;;;0.53;100.00;96341.72;5103096;28;20647;-55
2024/01/19 02:47:14;;;;;;;7.93;5.70;;;;;;;0.57;100.00;96338.00;5105850;28;20300;-55
2024/01/19 02:49:40;;;;;;;7.20;5.43;;;;;;;0.58;100.00;96349.25;5105221;28;20296;-55
2024/01/19 02:52:07;;;;;;;6.13;5.50;;;;;;;0.56;100.00;96351.97;5105768;28;20287;-53
2024/01/19 02:54:33;;;;;;;6.00;5.40;;;;;;;0.40;100.00;96345.94;5104219;27;20198;-55
2024/01/19 02:57:00;;;;;;;5.90;5.33;;;;;;;0.45;100.00;96354.34;5103021;28;20308;-54
2024/01/19 02:59:29;;;;;;;7.83;5.83;;;;;;;0.50;100.00;96347.09;5101987;28;20209;-53
2024/01/19 03:01:56;;;;;;;8.20;5.80;;;;;;;0.38;100.00;96347.81;5102297;28;20214;-56
2024/01/19 03:04:22;;;;;;;7.57;5.53;;;;;;;0.55;100.00;96355.47;5102134;28;20205;-56
2024/01/19 03:06:49;;;;;;;6.50;5.80;;;;;;;0.47;100.00;96347.28;5101580;28;20233;-56
2024/01/19 03:09:15;;;;;;;7.83;6.00;;;;;;;0.55;100.00;96350.28;5102607;27;20201;-55
2024/01/19 03:11:43;;;;;;;6.87;5.60;;;;;;;0.49;100.00;96354.09;5101684;28;20197;-56
2024/01/19 03:14:10;;;;;;;7.03;5.70;;;;;;;0.55;100.00;96359.84;5103073;27;20277;-56
2024/01/19 03:16:43;;;;;;;7.57;5.93;;;;;;;0.52;100.00;96363.47;5102306;28;20197;-56
2024/01/19 03:19:09;;;;;;;7.00;6.30;;;;;;;0.46;100.00;96362.03;5102103;28;20304;-55
2024/01/19 03:21:36;;;;;;;7.60;6.43;;;;;;;0.54;100.00;96364.19;5101201;28;20735;-55
2024/01/19 03:24:05;;;;;;;10.70;6.03;;;;;;;0.67;100.00;96369.53;5102051;27;20197;-55
2024/01/19 03:26:31;;;;;;;6.67;5.93;;;;;;;0.63;100.00;96368.88;5101023;28;20643;-54
2024/01/19 03:28:58;;;;;;;7.67;6.77;;;;;;;0.54;100.00;96364.19;5101548;28;20829;-54
2024/01/19 03:31:25;;;;;;;9.20;6.60;;;;;;;0.54;100.00;96371.16;5100511;28;20582;-56
2024/01/19 03:33:54;;;;;;;7.10;6.40;;;;;;;0.47;100.00;96366.31;5101603;28;20677;-55
2024/01/19 03:36:20;;;;;;;7.10;6.33;;;;;;;0.49;100.00;96361.88;5101919;27;20289;-54
2024/01/19 03:38:47;;;;;;;7.33;6.63;;;;;;;0.45;100.00;96369.94;5101102;28;20532;-55
2024/01/19 03:41:14;;;;;;;6.97;6.27;;;;;;;0.47;100.00;96370.69;5100331;28;20644;-55
2024/01/19 03:43:41;;;;;;;8.40;6.73;;;;;;;0.43;100.00;96362.22;5104610;28;20534;-55
2024/01/19 03:46:08;;;;;;;7.13;6.40;;;;;;;0.51;100.00;96374.78;5105601;28;20219;-56
2024/01/19 03:48:34;;;;;;;7.77;7.03;;;;;;;0.47;100.00;96374.13;5104891;27;20209;-56
2024/01/19 03:51:03;;;;;;;7.50;6.77;;;;;;;0.54;100.00;96389.38;5101757;28;20283;-56
2024/01/19 03:53:30;;;;;;;10.73;6.77;;;;;;;0.44;100.00;96394.28;5083636;28;20255;-56
2024/01/19 03:55:56;;;;;;;7.53;6.83;;;;;;;0.44;100.00;96392.50;5101667;28;20219;-56
2024/01/19 03:58:23;;;;;;;7.60;6.90;;;;;;;0.48;100.00;96390.56;5101789;28;20209;-55
2024/01/19 04:00:50;;;;;;;9.33;6.67;;;;;;;0.52;100.00;96399.88;5101280;27;20316;-55
2024/01/19 04:03:19;;;;;;;10.17;6.80;;;;;;;0.50;100.00;96393.91;5101076;28;20209;-56
2024/01/19 04:05:48;;;;;;;8.70;7.00;;;;;;;0.45;100.00;96395.97;5105047;27;20244;-54
2024/01/19 04:08:16;;;;;;;8.17;7.07;;;;;;;0.42;100.00;96396.97;5118382;27;20200;-57
2024/01/19 04:10:43;;;;;;;7.57;6.53;;;;;;;0.42;100.00;96403.94;5119148;27;20196;-56
2024/01/19 04:13:09;;;;;;;7.97;6.80;;;;;;;0.46;100.00;96401.06;5120717;27;20206;-56
2024/01/19 04:15:36;;;;;;;9.53;6.30;;;;;;;0.43;100.00;96400.38;5119596;27;20597;-56
2024/01/19 04:18:04;;;;;;;7.20;6.10;;;;;;;0.38;100.00;96403.28;5120875;27;20362;-56
2024/01/19 04:20:32;;;;;;;8.33;7.10;;;;;;;0.30;100.00;96407.22;5117065;27;20239;-56
2024/01/19 04:22:58;;;;;;;7.50;6.70;;;;;;;0.37;100.00;96409.41;5119676;27;20633;-56
2024/01/19 04:25:26;;;;;;;7.10;6.33;;;;;;;0.42;100.00;96414.34;5119373;27;20649;-55
2024/01/19 04:27:53;;;;;;;6.43;5.83;;;;;;;0.40;100.00;96408.38;5118502;27;20218;-56
2024/01/19 04:30:22;;;;;;;7.17;6.40;;;;;;;0.38;100.00;96405.88;5118548;27;20225;-55
2024/01/19 04:32:49;;;;;;;7.87;6.00;;;;;;;0.39;100.00;96417.13;5119212;28;20283;-55
2024/01/19 04:35:15;;;;;;;7.23;5.80;;;;;;;0.32;100.00;96418.41;5117646;27;20205;-55
2024/01/19 04:37:42;;;;;;;5.87;5.30;;;;;;;0.32;100.00;96421.00;5119140;27;20332;-54
2024/01/19 04:40:09;;;;;;;6.50;5.60;;;;;;;0.34;100.00;96430.38;5119123;27;20224;-55
2024/01/19 04:42:37;;;;;;;6.83;5.90;;;;;;;0.30;100.00;96438.44;5117520;27;20280;-55
2024/01/19 04:45:04;;;;;;;6.90;5.57;;;;;;;0.23;100.00;96444.91;5118078;28;20283;-55
2024/01/19 04:47:31;;;;;;;7.23;5.90;;;;;;;0.26;100.00;96445.56;5118709;28;20203;-54
2024/01/19 04:49:57;;;;;;;8.03;7.23;;;;;;;0.26;100.00;96452.53;5119535;28;20208;-54
2024/01/19 04:52:25;;;;;;;6.83;5.30;;;;;;;0.27;100.00;96460.25;5119948;28;20283;-54
2024/01/19 04:54:52;;;;;;;7.60;5.13;;;;;;;0.27;100.00;96454.22;5115328;28;20215;-55
2024/01/19 04:57:18;;;;;;;8.67;5.43;;;;;;;0.24;100.00;96459.59;5118566;28;20215;-54
2024/01/19 04:59:46;;;;;;;6.60;5.23;;;;;;;0.16;100.00;96461.75;5114650;28;20219;-54
2024/01/19 05:02:13;;;;;;;5.07;4.57;;;;;;;0.21;100.00;96459.75;5118759;28;20205;-56
2024/01/19 05:04:41;;;;;;;6.27;5.07;;;;;;;0.17;100.00;96463.44;5120429;28;20644;-55
2024/01/19 05:07:08;;;;;;;10.87;5.30;;;;;;;0.16;100.00;96472.16;5088715;28;20322;-55
2024/01/19 05:09:34;;;;;;;5.70;4.90;;;;;;;0.12;100.00;96470.66;5080528;28;20301;-56
2024/01/19 05:12:01;;;;;;;7.07;4.80;;;;;;;0.02;100.00;96474.69;5079867;28;20205;-53
2024/01/19 05:14:28;;;;;;;5.57;4.87;;;;;;;0.06;100.00;96471.00;5079692;28;20198;-55
2024/01/19 05:16:56;;;;;;;6.80;4.37;;;;;;;0.04;100.00;96476.25;5079934;28;20209;-54
2024/01/19 05:19:24;;;;;;;6.67;4.70;;;;;;;0.02;100.00;96487.69;5081633;28;20340;-54
2024/01/19 05:21:51;;;;;;;6.37;4.93;;;;;;;0.01;100.00;96484.22;5079340;28;20221;-56
2024/01/19 05:24:18;;;;;;;7.60;4.97;;;;;;;0.10;100.00;96488.09;5080189;28;20646;-54
2024/01/19 05:26:45;;;;;;;6.00;4.80;;;;;;;0.02;100.00;96496.31;5079738;28;20656;-56
2024/01/19 05:29:11;;;;;;;5.33;4.83;;;;;;;-0.03;100.00;96501.75;5079611;28;20313;-55
2024/01/19 05:31:38;;;;;;;6.67;4.23;;;;;;;0.05;100.00;96513.50;5081238;28;20197;-56
2024/01/19 05:34:06;;;;;;;6.53;4.67;;;;;;;0.06;100.00;96512.59;5079246;28;20209;-55
2024/01/19 05:36:32;;;;;;;5.67;5.07;;;;;;;-0.04;100.00;96523.47;5080331;28;20215;-56
2024/01/19 05:38:59;;;;;;;6.10;4.77;;;;;;;-0.10;100.00;96531.59;5078439;28;20220;-54
2024/01/19 05:41:25;;;;;;;5.10;4.60;;;;;;;-0.23;100.00;96527.97;5080800;28;20265;-55
2024/01/19 05:43:52;;;;;;;7.97;4.97;;;;;;;-0.16;100.00;96534.53;5078522;28;20197;-56
2024/01/19 05:46:18;;;;;;;6.17;4.60;;;;;;;-0.15;100.00;96540.56;5079230;28;20288;-55
2024/01/19 05:48:45;;;;;;;5.23;4.70;;;;;;;-0.25;100.00;96542.78;5080494;28;20206;-56
2024/01/19 05:51:18;;;;;;;6.23;5.20;;;;;;;-0.30;100.00;96547.41;5082835;28;20316;-56
2024/01/19 05:53:45;;;;;;;6.10;4.70;;;;;;;-0.35;100.00;96556.31;5091946;28;20601;-57
2024/01/19 05:56:12;;;;;;;5.73;4.70;;;;;;;-0.40;100.00;96566.97;5089898;28;20196;-56
2024/01/19 05:58:38;;;;;;;5.10;4.50;;;;;;;-0.47;100.00;96564.78;5094700;28;20271;-56
2024/01/19 06:01:06;;;;;;;5.37;4.80;;;;;;;-0.42;100.00;96567.97;5084745;28;20248;-55
2024/01/19 06:03:34;;;;;;;5.00;4.50;;;;;;;-0.38;100.00;96572.91;5085340;28;20219;-54
2024/01/19 06:06:01;;;;;;;7.47;4.80;;;;;;;-0.40;100.00;96572.19;5089892;28;20238;-56
2024/01/19 06:08:29;;;;;;;5.00;4.50;;;;;;;-0.38;100.00;96583.31;5103452;28;20219;-55
2024/01/19 06:10:55;;;;;;;5.20;4.70;;;;;;;-0.31;100.00;96587.28;5101849;28;20215;-56
2024/01/19 06:13:22;;;;;;;6.80;4.53;;;;;;;-0.36;100.00;96589.28;5105065;27;20225;-57
2024/01/19 06:15:49;;;;;;;5.90;4.37;;;;;;;-0.39;100.00;96594.63;5104148;28;20200;-56
2024/01/19 06:18:15;;;;;;;6.47;4.63;;;;;;;-0.42;100.00;96596.53;5103324;28;20280;-56
2024/01/19 06:20:42;;;;;;;5.83;4.33;;;;;;;-0.51;100.00;96603.03;5102737;27;20315;-56
2024/01/19 06:23:09;;;;;;;5.20;4.63;;;;;;;-0.40;100.00;96611.13;5104132;28;20208;-57
2024/01/19 06:25:39;;;;;;;6.10;4.50;;;;;;;-0.47;100.00;96612.38;5103243;28;20265;-57
2024/01/19 06:28:06;;;;;;;6.03;4.80;;;;;;;-0.50;100.00;96618.53;5103544;28;20503;-56
2024/01/19 06:30:32;;;;;;;4.80;4.40;;;;;;;-0.47;100.00;96620.16;5103164;28;20211;-57
2024/01/19 06:32:59;;;;;;;7.23;5.00;;;;;;;-0.57;100.00;96624.13;5105751;27;20206;-57
2024/01/19 06:35:26;;;;;;;6.73;4.97;;;;;;;-0.45;100.00;96625.25;5104803;28;20304;-56
2024/01/19 06:37:54;;;;;;;9.53;5.27;;;;;;;-0.48;100.00;96622.81;5103554;27;20216;-57
2024/01/19 06:40:20;;;;;;;5.73;4.43;;;;;;;-0.45;100.00;96620.06;5104860;27;20222;-56
2024/01/19 06:42:51;;;;;;;6.23;4.60;;;;;;;-0.51;100.00;96626.41;5103880;28;20200;-55
2024/01/19 06:45:19;;;;;;;5.73;4.80;;;;;;;-0.44;100.00;96632.16;5103404;28;20213;-56
2024/01/19 06:47:45;;;;;;;6.77;4.97;;;;;;;-0.47;100.00;96633.16;5104455;28;20224;-56
2024/01/19 06:50:13;;;;;;;5.63;4.97;;;;;;;-0.50;100.00;96633.31;5105101;27;20683;-54
2024/01/19 06:52:40;;;;;;;7.00;5.00;;;;;;;-0.48;100.00;96646.19;5103458;28;20291;-57
2024/01/19 06:55:07;;;;;;;5.70;4.93;;;;;;;-0.52;100.00;96650.69;5104326;27;20219;-56
2024/01/19 06:57:34;;;;;;;5.50;5.00;;;;;;;-0.46;100.00;96650.38;5103120;28;20205;-56
2024/01/19 07:00:03;;;;;;;5.33;4.83;;;;;;;-0.55;100.00;96653.47;5102638;28;20216;-55
2024/01/19 07:02:30;;;;;;;6.13;4.93;;;;;;;-0.59;100.00;96659.72;5102266;27;20569;-55
2024/01/19 07:04:57;;;;;;;5.03;4.60;;;;;;;-0.67;100.00;96667.03;5103627;28;20623;-56
2024/01/19 07:07:24;;;;;;;7.00;4.63;;;;;;;-0.73;100.00;96668.19;5102487;28;20243;-57
2024/01/19 07:09:52;;;;;;;5.90;4.90;;;;;;;-0.76;100.00;96673.53;5102545;27;20298;-57
2024/01/19 07:12:19;;;;;;;5.60;5.10;;;;;;;-0.73;100.00;96669.94;5102102;28;20196;-55
2024/01/19 07:14:45;;;;;;;5.50;5.00;;;;;;;-0.81;100.00;96674.63;5102384;28;20624;-56
2024/01/19 07:17:13;;;;;;;7.23;4.80;;;;;;;-0.92;100.00;96687.31;5103054;28;20537;-57
2024/01/19 07:19:40;;;;;;;4.67;4.23;;;;;;;-0.88;100.00;96697.47;5102323;28;20209;-56
2024/01/19 07:22:07;;;;;;;6.87;4.60;;;;;;;-0.89;100.00;96701.00;5102821;28;20219;-56
2024/01/19 07:24:35;;;;;;;9.17;5.57;;;;;;;-0.93;100.00;96707.22;5102420;27;20212;-57
2024/01/19 07:27:02;;;;;;;6.77;4.93;;;;;;;-1.01;100.00;96719.72;5106028;27;20236;-56
2024/01/19 07:29:28;;;;;;;5.43;4.40;;;;;;;-0.97;100.00;96720.41;5125856;27;20209;-56
2024/01/19 07:31:55;;;;;;;5.30;4.50;;;;;;;-0.98;100.00;96734.28;5122622;27;20197;-56
2024/01/19 07:34:26;;;;;;;7.53;5.90;;;;;;;-0.92;100.00;96729.66;5114953;28;20213;-57
2024/01/19 07:36:52;;;;;;;11.90;8.10;;;;;;;-0.85;100.00;96743.22;5106671;28;20195;-56
2024/01/19 07:39:23;;;;;;;8.13;5.53;;;;;;;-0.81;100.00;96750.78;5103829;27;20212;-55
2024/01/19 07:41:50;;;;;;;7.00;4.87;;;;;;;-0.71;100.00;96764.19;5103308;27;20206;-54
2024/01/19 07:44:16;;;;;;;6.03;4.90;;;;;;;-0.69;100.00;96762.34;5102697;28;20210;-57
2024/01/19 07:46:44;;;;;;;8.73;4.93;;;;;;;-0.66;100.00;96778.63;5102445;27;20288;-55
2024/01/19 07:49:11;;;;;;;5.50;5.00;;;;;;;-0.59;100.00;96767.03;5101968;28;20212;-55
2024/01/19 07:51:39;;;;;;;6.53;5.00;;;;;;;-0.53;100.00;96779.72;5104159;28;20210;-56
2024/01/19 07:54:06;;;;;;;5.33;4.63;;;;;;;-0.48;100.00;96784.72;5102819;28;20534;-55
2024/01/19 07:56:33;;;;;;;5.43;4.67;;;;;;;-0.55;100.00;96796.31;5102661;28;20622;-55
2024/01/19 07:58:59;;;;;;;5.90;4.87;;;;;;;-0.44;100.00;96799.25;5102604;28;20268;-55
2024/01/19 08:01:26;;;;;;;6.30;5.03;;;;;;;-0.43;100.00;96806.13;5106026;28;20229;-55
2024/01/19 08:03:54;;;;;;;6.20;5.00;;;;;;;-0.33;100.00;96799.56;5089296;28;20192;-55
2024/01/19 08:06:21;;;;;;;4.97;4.27;;;;;;;-0.37;100.00;96811.03;5107655;27;20339;-55
2024/01/19 08:08:51;;;;;;;5.23;4.67;;;;;;;-0.25;100.00;96817.41;5104538;28;20209;-55
2024/01/19 08:11:18;;;;;;;5.23;4.73;;;;;;;-0.24;100.00;96819.06;5103041;28;20195;-55
2024/01/19 08:13:44;;;;;;;6.63;4.70;;;;;;;-0.19;100.00;96820.53;5101990;28;20262;-55
2024/01/19 08:16:11;;;;;;;5.67;4.67;;;;;;;0.03;100.00;96825.56;5101439;28;20639;-55
2024/01/19 08:18:38;;;;;;;6.07;4.67;;;;;;;0.06;100.00;96830.59;5102100;27;20302;-55
2024/01/19 08:21:05;;;;;;;5.03;4.60;;;;;;;0.15;100.00;96834.47;5101565;28;20208;-54
2024/01/19 08:23:33;;;;;;;4.90;4.43;;;;;;;0.17;100.00;96828.31;5101063;28;20282;-55
2024/01/19 08:26:04;;;;;;;4.70;4.03;;;;;;;0.12;100.00;96832.88;5101444;28;20332;-55
2024/01/19 08:28:31;;;;;;;4.70;3.60;;;;;;;0.23;100.00;96829.75;5101213;27;20211;-56
2024/01/19 08:30:58;;;;;;;3.87;3.57;;;;;;;0.35;100.00;96836.97;5100957;28;20292;-54
2024/01/19 08:33:25;;;;;;;4.77;3.93;;;;;;;0.53;100.00;96840.41;5101421;28;20219;-54
2024/01/19 08:35:54;;;;;;;3.60;3.30;;;;;;;0.50;100.00;96839.63;5102887;28;20228;-55
2024/01/19 08:38:21;;;;;;;4.83;3.87;;;;;;;0.62;100.00;96845.97;5100006;28;20745;-55
2024/01/19 08:40:47;;;;;;;4.40;3.57;;;;;;;0.77;100.00;96853.00;5099731;28;20294;-56
2024/01/19 08:43:15;;;;;;;5.63;3.73;;;;;;;0.73;100.00;96850.63;5101285;28;20217;-54
2024/01/19 08:45:41;;;;;;;4.10;3.23;;;;;;;0.81;100.00;96859.75;5101196;27;20291;-53
2024/01/19 08:48:08;;;;;;;5.77;3.70;;;;;;;0.89;100.00;96867.97;5101454;28;20209;-54
2024/01/19 08:50:35;;;;;;;5.13;3.30;;;;;;;1.05;100.00;96870.66;5100760;28;20628;-54
2024/01/19 08:53:03;;;;;;;5.00;3.40;;;;;;;1.11;100.00;96872.06;5099952;28;20208;-55
2024/01/19 08:55:30;;;;;;;4.90;3.47;;;;;;;1.08;100.00;96877.44;5099809;28;20615;-55
2024/01/19 08:57:56;;;;;;;4.77;3.40;;;;;;;1.32;100.00;96882.22;5102810;28;20639;-54
2024/01/19 09:00:24;;;;;;;3.17;2.93;;;;;;;1.35;100.00;96878.59;5103527;28;20212;-53
2024/01/19 09:02:51;;;;;;;3.70;3.20;;;;;;;1.57;100.00;96873.94;5105277;28;20289;-54
2024/01/19 09:05:18;;;;;;;3.60;3.30;;;;;;;1.49;100.00;96876.94;5103258;28;20212;-54
2024/01/19 09:07:46;;;;;;;4.53;3.17;;;;;;;1.74;100.00;96875.59;5107269;28;20197;-53
2024/01/19 09:10:13;;;;;;;4.20;3.03;;;;;;;1.52;100.00;96879.38;5109296;28;20360;-53
2024/01/19 09:12:40;;;;;;;3.60;2.90;;;;;;;1.49;100.00;96876.94;5107758;28;20224;-55
2024/01/19 09:15:07;;;;;;;3.73;3.43;;;;;;;1.59;100.00;96892.09;5100567;28;20289;-55
2024/01/19 09:17:35;;;;;;;4.67;3.67;;;;;;;1.80;100.00;96894.38;5100443;28;20201;-53
2024/01/19 09:20:04;;;;;;;4.27;2.97;;;;;;;1.97;100.00;96893.47;5100320;28;20204;-55
2024/01/19 09:22:31;;;;;;;3.77;3.33;;;;;;;2.11;100.00;96905.72;5101169;28;20233;-55
2024/01/19 09:24:57;;;;;;;3.33;3.07;;;;;;;2.61;100.00;96906.31;5103067;28;20237;-54
2024/01/19 09:27:24;;;;;;;3.20;3.00;;;;;;;2.75;100.00;96913.34;5106126;28;20194;-53
2024/01/19 09:29:50;;;;;;;3.63;2.90;;;;;;;2.85;100.00;96915.34;5104498;28;20208;-56
2024/01/19 09:32:17;;;;;;;3.33;2.80;;;;;;;2.95;98.82;96911.25;5105244;28;20193;-56
2024/01/19 09:34:46;;;;;;;3.33;2.90;;;;;;;3.11;97.57;96926.88;5105318;27;20201;-54
2024/01/19 09:37:12;;;;;;;2.83;2.63;;;;;;;2.98;99.01;96931.13;5105717;27;20224;-55
2024/01/19 09:39:39;;;;;;;2.90;2.70;;;;;;;3.06;100.00;96936.75;5104316;28;20202;-55
2024/01/19 09:42:10;;;;;;;2.90;2.70;;;;;;;3.66;96.39;96939.22;5104786;28;20312;-56
2024/01/19 09:44:37;;;;;;;3.60;2.63;;;;;;;3.80;97.79;96942.69;5104264;28;20284;-56
2024/01/19 09:47:17;;;;;;;3.30;3.00;;;;;;;4.42;90.43;96935.28;5104580;28;20293;-57
2024/01/19 09:49:56;;;;;;;3.10;2.80;;;;;;;4.29;89.25;96950.94;5104535;27;20300;-56
2024/01/19 09:52:29;;;;;;;3.20;2.90;;;;;;;4.36;92.56;96951.38;5104279;27;20438;-55
2024/01/19 09:54:56;;;;;;;4.17;1.60;;;;;;;4.78;76.61;96953.03;5102263;28;20516;-56
2024/01/19 09:57:22;;;;;;;2.73;2.13;;;;;;;5.19;76.93;96958.16;5104293;27;20201;-56
2024/01/19 09:59:49;;;;;;;5.13;2.07;;;;;;;4.91;76.26;96959.13;5103616;28;20209;-57
2024/01/19 10:02:19;;;;;;;1.33;1.20;;;;;;;5.15;68.29;96964.53;5102463;27;20221;-57
2024/01/19 10:04:48;;;;;;;1.33;1.20;;;;;;;4.89;67.51;96967.09;5103015;28;20206;-57
2024/01/19 10:07:15;;;;;;;1.20;1.10;;;;;;;4.72;68.56;96966.50;5086959;27;20238;-55
2024/01/19 10:09:42;;;;;;;2.27;1.33;;;;;;;4.61;77.18;96977.69;5084182;28;20301;-57
2024/01/19 10:12:10;;;;;;;2.27;1.60;;;;;;;4.38;79.55;96979.16;5082727;28;20205;-58
2024/01/19 10:14:36;;;;;;;1.10;1.10;;;;;;;4.12;82.11;96989.56;5087124;28;20221;-57
2024/01/19 10:17:04;;;;;;;2.10;1.50;;;;;;;3.99;73.90;96995.56;5089860;28;20508;-57
2024/01/19 10:19:31;;;;;;;2.23;1.30;;;;;;;3.98;82.54;96988.66;5092723;28;20231;-56
2024/01/19 10:22:25;;;;;;;2.40;1.43;;;;;;;3.49;78.39;96989.94;5090452;28;20277;-56
2024/01/19 10:24:59;;;;;;;2.10;1.40;;;;;;;3.17;88.32;96994.47;5083696;28;20194;-57
2024/01/19 10:27:38;;;;;;;3.03;1.73;;;;;;;3.11;81.69;96999.19;5083956;28;20193;-54
2024/01/19 10:30:09;;;;;;;2.17;2.00;;;;;;;2.89;87.87;96997.81;5083854;28;20311;-54
2024/01/19 10:32:36;;;;;;;2.33;1.97;;;;;;;2.98;87.37;96997.28;5082263;28;20210;-55
2024/01/19 10:35:11;;;;;;;2.87;1.70;;;;;;;2.60;89.34;96996.00;5081609;28;20198;-54
2024/01/19 10:37:39;;;;;;;2.33;1.80;;;;;;;2.47;87.69;96993.25;5082655;28;20193;-55
2024/01/19 10:40:16;;;;;;;2.20;2.00;;;;;;;2.44;83.14;96996.00;5082382;28;20615;-55
2024/01/19 10:42:44;;;;;;;2.30;1.97;;;;;;;2.37;90.03;96999.06;5082515;28;20560;-55
2024/01/19 10:45:18;;;;;;;3.20;2.00;;;;;;;2.38;88.95;97000.72;5082665;28;20657;-55
2024/01/19 10:47:45;;;;;;;3.07;1.80;;;;;;;2.26;87.14;97002.28;5090154;28;20334;-55
2024/01/19 10:50:14;;;;;;;2.77;2.50;;;;;;;2.18;83.18;97011.44;5093993;28;20206;-55
2024/01/19 10:52:42;;;;;;;2.77;1.90;;;;;;;2.42;87.99;97015.31;5094926;28;20232;-56
2024/01/19 10:55:11;;;;;;;2.57;1.60;;;;;;;2.27;80.75;97013.53;5093433;28;20194;-55
2024/01/19 10:57:41;;;;;;;3.03;1.77;;;;;;;2.13;86.10;97016.03;5093485;28;20212;-55
2024/01/19 11:00:21;;;;;;;1.40;1.30;;;;;;;2.07;89.31;97009.41;5093938;28;20209;-55
2024/01/19 11:02:48;;;;;;;1.80;1.50;;;;;;;2.17;89.71;97000.16;5094784;28;20226;-56
2024/01/19 11:05:17;;;;;;;3.20;1.50;;;;;;;2.13;83.24;97005.59;5093422;28;20225;-55
2024/01/19 11:07:46;;;;;;;2.43;1.50;;;;;;;2.16;80.30;97008.06;5093781;28;20210;-58
2024/01/19 11:10:13;;;;;;;1.50;1.27;;;;;;;2.25;84.76;97002.34;5093407;28;20329;-55
2024/01/19 11:12:47;;;;;;;2.43;1.40;;;;;;;2.53;82.27;97006.88;5082387;28;20251;-55
2024/01/19 11:15:18;;;;;;;2.73;1.50;;;;;;;2.77;82.92;96997.66;5083963;28;20189;-54
2024/01/19 11:17:45;;;;;;;1.67;1.57;;;;;;;3.50;80.75;96989.88;5084181;28;20527;-54
2024/01/19 11:20:12;;;;;;;2.23;1.70;;;;;;;4.69;71.54;96974.56;5082885;28;20199;-53
2024/01/19 11:22:38;;;;;;;2.00;1.20;;;;;;;5.53;65.60;96979.38;5082714;28;20579;-55
2024/01/19 11:25:09;;;;;;;2.23;1.70;;;;;;;5.78;63.50;96978.53;5082656;28;20217;-53
2024/01/19 11:27:41;;;;;;;1.80;1.30;;;;;;;5.94;66.83;96983.59;5082928;28;20190;-54
2024/01/19 11:30:18;;;;;;;2.57;1.27;;;;;;;6.28;68.17;96982.06;5081758;28;20251;-54
2024/01/19 11:32:44;;;;;;;1.52;1.42;;;;;;;6.75;61.08;96982.16;5082193;28;20202;-54